createdAt,value
2018-08-17T00:01:46.636Z,18.00
2018-08-17T00:04:15.183Z,13.80
2018-08-17T00:06:42.784Z,18.40
2018-08-17T00:09:11.293Z,18.80
2018-08-17T00:11:40.251Z,16.40
2018-08-17T00:14:08.378Z,17.60
2018-08-17T00:16:35.971Z,17.20
2018-08-17T00:19:04.303Z,15.80
2018-08-17T00:21:32.202Z,15.80
2018-08-17T00:24:01.155Z,15.80
2018-08-17T00:26:29.579Z,17.20
2018-08-17T00:29:03.911Z,19.40
2018-08-17T00:31:32.094Z,17.20
2018-08-17T00:34:00.538Z,18.80
2018-08-17T00:36:28.199Z,12.80
2018-08-17T00:38:55.819Z,18.00
2018-08-17T00:41:23.640Z,14.20
2018-08-17T00:43:53.078Z,18.40
2018-08-17T00:46:20.970Z,17.20
2018-08-17T00:48:48.571Z,18.00
2018-08-17T00:51:16.158Z,17.40
2018-08-17T00:53:43.730Z,18.20
2018-08-17T00:56:12.427Z,15.60
2018-08-17T00:58:40.015Z,16.60
2018-08-17T01:01:07.607Z,16.80
2018-08-17T01:03:35.491Z,19.40
2018-08-17T01:06:03.287Z,19.20
2018-08-17T01:08:30.879Z,17.20
2018-08-17T01:10:58.475Z,18.40
2018-08-17T01:13:26.338Z,17.00
2018-08-17T01:15:54.009Z,21.00
2018-08-17T01:18:22.596Z,13.00
2018-08-17T01:20:50.618Z,20.60
2018-08-17T01:23:18.230Z,16.40
2018-08-17T01:25:46.802Z,18.00
2018-08-17T01:28:14.547Z,14.60
2018-08-17T01:30:42.435Z,15.40
2018-08-17T01:33:10.119Z,16.00
2018-08-17T01:35:38.411Z,18.40
2018-08-17T01:38:06.597Z,16.20
2018-08-17T01:40:34.210Z,16.40
2018-08-17T01:43:01.863Z,16.00
2018-08-17T01:45:29.515Z,15.80
2018-08-17T01:47:58.379Z,14.20
2018-08-17T01:50:25.987Z,18.80
2018-08-17T01:52:53.625Z,17.80
2018-08-17T01:55:21.272Z,18.00
2018-08-17T01:57:49.238Z,20.20
2018-08-17T02:00:17.570Z,16.40
2018-08-17T02:02:45.190Z,16.00
2018-08-17T02:05:12.802Z,17.20
2018-08-17T02:07:40.695Z,16.00
2018-08-17T02:10:09.770Z,18.80
2018-08-17T02:12:37.655Z,16.00
2018-08-17T02:15:05.274Z,16.00
2018-08-17T02:17:33.169Z,17.60
2018-08-17T02:20:00.806Z,17.60
2018-08-17T02:22:28.500Z,18.20
2018-08-17T02:24:56.142Z,18.80
2018-08-17T02:27:25.003Z,20.20
2018-08-17T02:29:53.391Z,17.20
2018-08-17T02:32:21.055Z,17.20
2018-08-17T02:34:48.680Z,18.40
2018-08-17T02:37:16.704Z,18.00
2018-08-17T02:39:44.918Z,17.20
2018-08-17T02:42:12.540Z,16.00
2018-08-17T02:44:40.179Z,18.80
2018-08-17T02:47:08.179Z,15.20
2018-08-17T02:49:35.806Z,18.60
2018-08-17T02:52:03.489Z,18.00
2018-08-17T02:54:31.103Z,14.40
2018-08-17T02:56:58.970Z,15.20
2018-08-17T02:59:26.647Z,16.80
2018-08-17T03:01:54.218Z,15.00
2018-08-17T03:04:21.822Z,21.80
2018-08-17T03:06:49.719Z,15.20
2018-08-17T03:09:17.400Z,17.20
2018-08-17T03:11:45.039Z,17.60
2018-08-17T03:14:12.672Z,18.00
2018-08-17T03:16:40.331Z,14.80
2018-08-17T03:19:07.927Z,18.60
2018-08-17T03:21:35.794Z,17.60
2018-08-17T03:24:03.390Z,15.20
2018-08-17T03:26:31.009Z,18.40
2018-08-17T03:28:59.015Z,16.80
2018-08-17T03:31:26.635Z,17.80
2018-08-17T03:33:54.338Z,18.20
2018-08-17T03:36:22.570Z,19.40
2018-08-17T03:38:50.519Z,15.20
2018-08-17T03:41:18.132Z,20.20
2018-08-17T03:43:46.340Z,20.80
2018-08-17T03:46:13.975Z,21.00
2018-08-17T03:48:41.874Z,14.20
2018-08-17T03:51:09.503Z,16.80
2018-08-17T03:53:37.126Z,21.00
2018-08-17T03:56:05.061Z,21.20
2018-08-17T03:58:32.712Z,19.40
2018-08-17T04:01:00.392Z,21.40
2018-08-17T04:03:27.992Z,21.00
2018-08-17T04:05:55.897Z,16.00
2018-08-17T04:08:23.496Z,21.00
2018-08-17T04:10:51.124Z,19.20
2018-08-17T04:13:19.267Z,22.80
2018-08-17T04:15:47.142Z,21.60
2018-08-17T04:18:14.753Z,23.60
2018-08-17T04:20:42.396Z,19.80
2018-08-17T04:23:09.992Z,20.20
2018-08-17T04:25:37.870Z,20.40
2018-08-17T04:28:05.511Z,23.60
2018-08-17T04:30:33.213Z,16.40
2018-08-17T04:33:01.218Z,16.00
2018-08-17T04:35:30.114Z,17.60
2018-08-17T04:37:57.731Z,16.40
2018-08-17T04:40:26.031Z,21.00
2018-08-17T04:42:53.678Z,16.80
2018-08-17T04:45:21.573Z,18.60
2018-08-17T04:47:49.985Z,19.20
2018-08-17T04:50:17.599Z,20.00
2018-08-17T04:52:46.087Z,18.40
2018-08-17T04:55:14.067Z,17.60
2018-08-17T04:57:41.663Z,17.60
2018-08-17T05:00:10.078Z,15.40
2018-08-17T05:02:38.210Z,15.20
2018-08-17T05:05:05.839Z,14.60
2018-08-17T05:07:33.507Z,15.00
2018-08-17T05:10:01.124Z,13.80
2018-08-17T05:12:29.338Z,16.80
2018-08-17T05:14:57.222Z,15.20
2018-08-17T05:17:24.847Z,15.00
2018-08-17T05:19:52.473Z,13.80
2018-08-17T05:22:20.350Z,14.40
2018-08-17T05:24:47.935Z,12.20
2018-08-17T05:27:16.538Z,16.40
2018-08-17T05:29:45.256Z,10.40
2018-08-17T05:32:12.862Z,12.00
2018-08-17T05:34:40.476Z,13.80
2018-08-17T05:37:08.352Z,12.00
2018-08-17T05:39:37.560Z,13.00
2018-08-17T05:42:05.188Z,10.20
2018-08-17T05:44:33.092Z,11.20
2018-08-17T05:47:00.711Z,12.40
2018-08-17T05:49:28.311Z,10.60
2018-08-17T05:51:56.202Z,5.60
2018-08-17T05:54:23.800Z,8.60
2018-08-17T05:56:51.423Z,8.60
2018-08-17T05:59:19.439Z,10.00
2018-08-17T06:01:47.322Z,8.40
2018-08-17T06:04:14.988Z,9.40
2018-08-17T06:06:42.902Z,8.00
2018-08-17T06:09:10.923Z,10.60
2018-08-17T06:11:38.915Z,10.00
2018-08-17T06:14:06.970Z,10.00
2018-08-17T06:16:34.600Z,8.00
2018-08-17T06:19:02.183Z,7.40
2018-08-17T06:21:30.071Z,7.00
2018-08-17T06:23:57.694Z,8.60
2018-08-17T06:26:25.327Z,6.40
2018-08-17T06:28:53.204Z,6.60
2018-08-17T06:31:20.870Z,6.60
2018-08-17T06:33:49.539Z,5.40
2018-08-17T06:36:17.469Z,6.20
2018-08-17T06:38:45.118Z,7.40
2018-08-17T06:41:12.751Z,7.40
2018-08-17T06:43:45.557Z,8.00
2018-08-17T06:46:13.387Z,7.00
2018-08-17T06:48:41.008Z,7.00
2018-08-17T06:51:08.889Z,4.60
2018-08-17T06:53:36.542Z,7.40
2018-08-17T06:56:04.115Z,5.00
2018-08-17T06:58:31.990Z,6.00
2018-08-17T07:00:59.603Z,3.20
2018-08-17T07:03:27.190Z,7.00
2018-08-17T07:05:55.105Z,5.20
2018-08-17T07:08:23.514Z,6.40
2018-08-17T07:10:53.078Z,6.60
2018-08-17T07:13:21.049Z,4.60
2018-08-17T07:15:49.299Z,7.00
2018-08-17T07:18:16.925Z,5.20
2018-08-17T07:20:44.913Z,6.80
2018-08-17T07:23:12.538Z,8.20
2018-08-17T07:25:40.219Z,6.80
2018-08-17T07:28:09.385Z,9.00
2018-08-17T07:30:37.062Z,7.20
2018-08-17T07:33:06.609Z,7.40
2018-08-17T07:35:34.718Z,7.00
2018-08-17T07:38:04.034Z,7.00
2018-08-17T07:40:32.885Z,9.20
2018-08-17T07:43:03.853Z,6.60
2018-08-17T07:45:31.474Z,9.60
2018-08-17T07:47:59.938Z,8.60
2018-08-17T07:50:29.367Z,9.00
2018-08-17T07:52:56.969Z,11.20
2018-08-17T07:55:24.605Z,10.00
2018-08-17T07:57:52.495Z,7.40
2018-08-17T08:00:20.143Z,10.00
2018-08-17T08:02:48.478Z,7.00
2018-08-17T08:05:16.655Z,7.80
2018-08-17T08:07:45.066Z,8.60
2018-08-17T08:10:12.885Z,8.60
2018-08-17T08:12:47.370Z,7.00
2018-08-17T08:15:14.990Z,6.40
2018-08-17T08:17:42.658Z,8.20
2018-08-17T08:20:11.269Z,9.60
2018-08-17T08:22:38.980Z,8.60
2018-08-17T08:25:07.255Z,10.40
2018-08-17T08:27:37.670Z,9.80
2018-08-17T08:30:05.927Z,9.60
2018-08-17T08:32:34.150Z,11.60
2018-08-17T08:35:02.264Z,6.80
2018-08-17T08:37:29.896Z,13.40
2018-08-17T08:39:57.620Z,11.80
2018-08-17T08:42:25.507Z,12.40
2018-08-17T08:44:53.127Z,12.00
2018-08-17T08:47:20.749Z,12.00
2018-08-17T08:49:48.723Z,10.40
2018-08-17T08:52:16.312Z,10.60
2018-08-17T08:54:43.922Z,12.00
2018-08-17T08:57:11.814Z,13.60
2018-08-17T08:59:39.506Z,11.40
2018-08-17T09:02:07.659Z,10.00
2018-08-17T09:04:35.564Z,13.80
2018-08-17T09:07:03.234Z,13.00
2018-08-17T09:09:32.477Z,14.00
2018-08-17T09:12:00.980Z,12.20
2018-08-17T09:14:28.595Z,14.40
2018-08-17T09:16:56.509Z,17.40
2018-08-17T09:19:25.391Z,11.40
2018-08-17T09:21:54.136Z,12.20
2018-08-17T09:24:22.065Z,10.20
2018-08-17T09:26:53.248Z,11.40
2018-08-17T09:29:22.248Z,11.00
2018-08-17T09:31:53.860Z,10.40
2018-08-17T09:34:21.462Z,9.60
2018-08-17T09:36:49.264Z,10.20
2018-08-17T09:39:18.876Z,11.00
2018-08-17T09:41:46.775Z,9.00
2018-08-17T09:44:14.512Z,11.00
2018-08-17T09:46:42.418Z,8.80
2018-08-17T09:49:10.049Z,9.60
2018-08-17T09:51:38.374Z,6.00
2018-08-17T09:54:07.327Z,9.00
2018-08-17T09:56:35.758Z,8.80
2018-08-17T09:59:03.406Z,3.20
2018-08-17T10:01:36.247Z,8.80
2018-08-17T10:04:08.990Z,9.00
2018-08-17T10:06:41.856Z,7.80
2018-08-17T10:09:16.257Z,10.00
2018-08-17T10:11:43.930Z,7.40
2018-08-17T10:14:11.847Z,7.00
2018-08-17T10:16:39.450Z,6.80
2018-08-17T10:19:07.041Z,7.60
2018-08-17T10:21:40.315Z,6.60
2018-08-17T10:24:07.647Z,7.00
2018-08-17T10:26:35.250Z,5.20
2018-08-17T10:29:03.834Z,6.00
2018-08-17T10:31:34.703Z,7.60
2018-08-17T10:34:02.680Z,8.80
2018-08-17T10:36:31.584Z,9.00
2018-08-17T10:39:00.901Z,7.80
2018-08-17T10:41:28.511Z,9.20
2018-08-17T10:43:57.534Z,10.40
2018-08-17T10:46:25.952Z,11.00
2018-08-17T10:48:53.742Z,8.60
2018-08-17T10:51:23.652Z,9.00
2018-08-17T10:53:52.274Z,11.20
2018-08-17T10:56:19.880Z,10.20
2018-08-17T10:58:47.770Z,11.40
2018-08-17T11:01:16.092Z,12.60
2018-08-17T11:03:45.398Z,10.00
2018-08-17T11:06:13.290Z,13.80
2018-08-17T11:08:40.901Z,13.00
2018-08-17T11:11:08.700Z,11.40
2018-08-17T11:13:36.656Z,14.40
2018-08-17T11:16:04.816Z,12.00
2018-08-17T11:18:36.071Z,13.00
2018-08-17T11:21:04.936Z,10.40
2018-08-17T11:23:32.569Z,9.40
2018-08-17T11:26:00.847Z,13.40
2018-08-17T11:28:30.900Z,15.40
2018-08-17T11:30:58.571Z,17.60
2018-08-17T11:33:28.782Z,15.60
2018-08-17T11:35:57.184Z,18.80
2018-08-17T11:38:28.501Z,16.60
2018-08-17T11:40:58.905Z,17.20
2018-08-17T11:43:27.644Z,18.40
2018-08-17T11:45:55.681Z,22.40
2018-08-17T11:48:28.360Z,19.00
2018-08-17T11:50:56.540Z,19.40
2018-08-17T11:53:24.264Z,16.80
2018-08-17T11:55:52.739Z,18.20
2018-08-17T11:58:20.840Z,16.20
2018-08-17T12:00:52.476Z,19.80
2018-08-17T12:03:20.108Z,15.40
2018-08-17T12:05:48.043Z,19.00
2018-08-17T12:08:16.566Z,15.00
2018-08-17T12:10:44.616Z,12.60
2018-08-17T12:13:18.693Z,16.00
2018-08-17T12:15:51.263Z,15.20
2018-08-17T12:18:21.637Z,14.60
2018-08-17T12:20:50.223Z,15.60
2018-08-17T12:23:17.907Z,11.00
2018-08-17T12:25:52.066Z,13.80
2018-08-17T12:28:19.768Z,12.00
2018-08-17T12:30:47.740Z,14.40
2018-08-17T12:33:24.376Z,13.00
2018-08-17T12:35:52.336Z,9.20
2018-08-17T12:38:20.038Z,12.60
2018-08-17T12:40:49.710Z,9.00
2018-08-17T12:43:19.031Z,11.80
2018-08-17T12:45:49.332Z,11.00
2018-08-17T12:48:17.939Z,10.80
2018-08-17T12:50:45.970Z,13.00
2018-08-17T12:53:14.550Z,12.80
2018-08-17T12:55:44.359Z,13.40
2018-08-17T12:58:15.904Z,13.00
2018-08-17T13:00:43.579Z,12.80
2018-08-17T13:03:11.769Z,9.00
2018-08-17T13:05:39.426Z,6.60
2018-08-17T13:08:07.882Z,10.00
2018-08-17T13:10:35.875Z,11.80
2018-08-17T13:13:09.300Z,10.80
2018-08-17T13:15:38.103Z,10.60
2018-08-17T13:18:11.622Z,12.60
2018-08-17T13:20:44.538Z,13.00
2018-08-17T13:23:12.264Z,10.80
2018-08-17T13:25:40.532Z,12.60
2018-08-17T13:28:08.216Z,9.80
2018-08-17T13:30:36.098Z,10.00
2018-08-17T13:33:03.732Z,10.60
2018-08-17T13:35:31.397Z,10.40
2018-08-17T13:37:59.284Z,10.40
2018-08-17T13:40:27.830Z,12.60
2018-08-17T13:42:55.511Z,9.80
2018-08-17T13:45:23.491Z,9.00
2018-08-17T13:47:51.148Z,10.40
2018-08-17T13:50:19.991Z,10.80
2018-08-17T13:52:48.611Z,10.60
2018-08-17T13:55:16.294Z,12.40
2018-08-17T13:57:43.963Z,9.40
2018-08-17T14:00:12.259Z,10.40
2018-08-17T14:02:41.735Z,11.40
2018-08-17T14:05:09.700Z,13.20
2018-08-17T14:07:37.767Z,14.20
2018-08-17T14:10:05.443Z,11.40
2018-08-17T14:12:33.308Z,11.80
2018-08-17T14:15:01.279Z,11.40
2018-08-17T14:17:29.625Z,10.20
2018-08-17T14:19:58.840Z,13.60
2018-08-17T14:22:26.771Z,12.00
2018-08-17T14:24:54.397Z,11.00
2018-08-17T14:27:22.834Z,12.40
2018-08-17T14:29:50.752Z,15.00
2018-08-17T14:32:19.615Z,13.00
2018-08-17T14:34:48.240Z,15.60
2018-08-17T14:37:16.101Z,13.80
2018-08-17T14:39:44.477Z,11.60
2018-08-17T14:42:12.515Z,13.80
2018-08-17T14:44:40.381Z,13.00
2018-08-17T14:47:08.020Z,16.60
2018-08-17T14:49:35.626Z,14.80
2018-08-17T14:52:05.374Z,13.60
2018-08-17T14:54:36.547Z,11.60
2018-08-17T14:57:07.819Z,13.80
2018-08-17T14:59:35.716Z,11.60
2018-08-17T15:02:04.139Z,13.60
2018-08-17T15:04:31.826Z,13.00
2018-08-17T15:06:59.941Z,11.20
2018-08-17T15:09:28.082Z,9.00
2018-08-17T15:11:55.736Z,10.00
2018-08-17T15:14:24.451Z,6.80
2018-08-17T15:16:52.261Z,8.00
2018-08-17T15:19:19.871Z,7.60
2018-08-17T15:21:47.828Z,7.20
2018-08-17T15:24:16.396Z,8.60
2018-08-17T15:26:44.108Z,8.00
2018-08-17T15:29:12.058Z,9.00
2018-08-17T15:31:39.717Z,8.00
2018-08-17T15:34:07.330Z,8.60
2018-08-17T15:36:36.428Z,8.00
2018-08-17T15:39:04.652Z,8.60
2018-08-17T15:41:37.260Z,8.20
2018-08-17T15:44:05.760Z,8.00
2018-08-17T15:46:33.668Z,6.00
2018-08-17T15:49:02.315Z,4.60
2018-08-17T15:51:31.647Z,5.80
2018-08-17T15:53:59.251Z,7.20
2018-08-17T15:56:27.908Z,6.80
2018-08-17T15:58:56.469Z,5.60
2018-08-17T16:01:24.154Z,3.20
2018-08-17T16:03:53.431Z,6.00
2018-08-17T16:06:21.671Z,5.00
2018-08-17T16:08:49.487Z,5.00
2018-08-17T16:11:17.406Z,4.60
2018-08-17T16:13:46.732Z,5.00
2018-08-17T16:16:15.338Z,2.80
2018-08-17T16:18:47.337Z,5.00
2018-08-17T16:21:14.992Z,5.40
2018-08-17T16:23:42.640Z,5.60
2018-08-17T16:26:11.292Z,5.80
2018-08-17T16:28:38.958Z,6.40
2018-08-17T16:31:07.294Z,9.40
2018-08-17T16:33:39.431Z,7.80
2018-08-17T16:36:07.244Z,8.00
2018-08-17T16:38:35.475Z,9.20
2018-08-17T16:41:03.485Z,7.00
2018-08-17T16:43:32.179Z,7.00
2018-08-17T16:45:59.837Z,7.00
2018-08-17T16:48:27.850Z,7.40
2018-08-17T16:50:56.666Z,7.80
2018-08-17T16:53:29.304Z,9.60
2018-08-17T16:55:57.300Z,9.80
2018-08-17T16:58:26.605Z,9.00
2018-08-17T17:00:54.385Z,10.00
2018-08-17T17:03:23.061Z,9.40
2018-08-17T17:05:50.696Z,2.00
2018-08-17T17:08:21.493Z,9.40
2018-08-17T17:10:49.401Z,7.20
2018-08-17T17:13:19.384Z,8.20
2018-08-17T17:15:47.995Z,8.80
2018-08-17T17:18:16.037Z,9.60
2018-08-17T17:20:43.753Z,9.40
2018-08-17T17:23:13.533Z,9.60
2018-08-17T17:25:41.731Z,9.40
2018-08-17T17:28:10.269Z,9.40
2018-08-17T17:30:42.968Z,10.20
2018-08-17T17:33:11.410Z,9.00
2018-08-17T17:35:40.693Z,14.80
2018-08-17T17:38:09.791Z,12.00
2018-08-17T17:40:38.753Z,13.20
2018-08-17T17:43:07.715Z,13.20
2018-08-17T17:45:35.739Z,15.80
2018-08-17T17:48:04.086Z,11.20
2018-08-17T17:50:32.003Z,11.80
2018-08-17T17:53:00.534Z,14.00
2018-08-17T17:55:28.852Z,13.60
2018-08-17T17:57:58.500Z,11.20
2018-08-17T18:00:28.299Z,11.80
2018-08-17T18:02:56.517Z,11.40
2018-08-17T18:05:24.184Z,11.20
2018-08-17T18:07:53.756Z,11.20
2018-08-17T18:10:22.533Z,10.20
2018-08-17T18:12:51.211Z,12.00
2018-08-17T18:15:19.927Z,10.80
2018-08-17T18:17:49.286Z,10.40
2018-08-17T18:20:17.782Z,11.40
2018-08-17T18:22:45.571Z,7.80
2018-08-17T18:25:18.348Z,11.00
2018-08-17T18:27:46.742Z,10.60
2018-08-17T18:30:16.045Z,9.80
2018-08-17T18:32:43.998Z,8.80
2018-08-17T18:35:13.049Z,10.40
2018-08-17T18:37:41.418Z,11.00
2018-08-17T18:40:11.375Z,10.20
2018-08-17T18:42:39.926Z,9.60
2018-08-17T18:45:07.852Z,10.20
2018-08-17T18:47:35.825Z,13.00
2018-08-17T18:50:04.016Z,9.20
2018-08-17T18:52:31.665Z,12.60
2018-08-17T18:54:59.657Z,11.00
2018-08-17T18:57:27.365Z,11.00
2018-08-17T18:59:55.807Z,11.20
2018-08-17T19:02:23.707Z,11.00
2018-08-17T19:04:51.535Z,6.80
2018-08-17T19:07:19.138Z,10.00
2018-08-17T19:09:48.355Z,12.00
2018-08-17T19:12:18.451Z,13.00
2018-08-17T19:14:50.336Z,15.20
2018-08-17T19:17:23.299Z,13.60
2018-08-17T19:19:53.677Z,13.80
2018-08-17T19:22:21.959Z,12.20
2018-08-17T19:24:50.488Z,14.00
2018-08-17T19:27:24.211Z,14.60
2018-08-17T19:29:54.469Z,12.20
2018-08-17T19:32:22.671Z,13.40
2018-08-17T19:34:50.307Z,13.80
2018-08-17T19:37:25.081Z,12.00
2018-08-17T19:39:53.850Z,14.60
2018-08-17T19:42:21.518Z,15.20
2018-08-17T19:44:49.161Z,15.80
2018-08-17T19:47:17.642Z,13.00
2018-08-17T19:49:46.529Z,11.20
2018-08-17T19:52:14.720Z,14.20
2018-08-17T19:54:43.329Z,15.00
2018-08-17T19:57:11.839Z,13.40
2018-08-17T19:59:41.439Z,14.80
2018-08-17T20:02:10.362Z,13.80
2018-08-17T20:04:38.058Z,15.00
2018-08-17T20:07:05.720Z,12.60
2018-08-17T20:09:36.196Z,13.00
2018-08-17T20:12:03.827Z,8.60
2018-08-17T20:14:31.616Z,12.40
2018-08-17T20:16:59.552Z,9.80
2018-08-17T20:19:32.207Z,9.00
2018-08-17T20:22:03.582Z,12.00
2018-08-17T20:24:32.442Z,10.80
2018-08-17T20:27:00.264Z,12.00
2018-08-17T20:29:29.118Z,12.60
2018-08-17T20:31:57.717Z,7.00
2018-08-17T20:34:25.455Z,10.40
2018-08-17T20:36:53.142Z,12.00
2018-08-17T20:39:21.071Z,9.60
2018-08-17T20:41:49.598Z,13.00
2018-08-17T20:44:17.250Z,12.00
2018-08-17T20:46:46.382Z,12.00
2018-08-17T20:49:14.022Z,12.60
2018-08-17T20:51:46.324Z,12.40
2018-08-17T20:54:14.259Z,12.80
2018-08-17T20:56:41.899Z,11.60
2018-08-17T20:59:09.497Z,10.80
2018-08-17T21:01:40.500Z,12.80
2018-08-17T21:04:09.037Z,9.80
2018-08-17T21:06:37.439Z,15.00
2018-08-17T21:09:09.093Z,12.40
2018-08-17T21:11:37.639Z,13.80
2018-08-17T21:14:05.590Z,14.20
2018-08-17T21:16:33.753Z,12.80
2018-08-17T21:19:01.670Z,13.60
2018-08-17T21:21:29.596Z,15.60
2018-08-17T21:23:58.512Z,12.40
2018-08-17T21:26:26.689Z,12.60
2018-08-17T21:28:54.370Z,12.40
2018-08-17T21:31:22.861Z,12.20
2018-08-17T21:33:50.511Z,12.80
2018-08-17T21:36:18.313Z,12.60
2018-08-17T21:38:46.346Z,13.00
2018-08-17T21:41:13.935Z,12.60
2018-08-17T21:43:42.354Z,12.60
2018-08-17T21:46:12.241Z,12.20
2018-08-17T21:48:39.844Z,12.20
2018-08-17T21:51:08.326Z,7.00
2018-08-17T21:53:39.232Z,10.80
2018-08-17T21:56:07.768Z,12.00
2018-08-17T21:58:37.365Z,11.20
2018-08-17T22:01:05.451Z,12.60
2018-08-17T22:03:35.247Z,10.00
2018-08-17T22:06:02.864Z,11.20
2018-08-17T22:08:30.805Z,14.60
2018-08-17T22:11:01.374Z,12.00
2018-08-17T22:13:30.041Z,14.60
2018-08-17T22:15:57.880Z,12.80
2018-08-17T22:18:25.537Z,11.20
2018-08-17T22:20:53.383Z,12.60
2018-08-17T22:23:21.960Z,11.20
2018-08-17T22:25:49.572Z,11.40
2018-08-17T22:28:17.660Z,13.00
2018-08-17T22:30:45.860Z,10.00
2018-08-17T22:33:14.276Z,9.80
2018-08-17T22:35:43.347Z,13.00
2018-08-17T22:38:11.613Z,10.40
2018-08-17T22:40:40.232Z,13.00
2018-08-17T22:43:08.709Z,13.00
2018-08-17T22:45:36.305Z,15.00
2018-08-17T22:48:03.932Z,11.60
2018-08-17T22:50:31.828Z,12.40
2018-08-17T22:53:00.243Z,12.00
2018-08-17T22:55:27.850Z,12.20
2018-08-17T22:57:56.108Z,11.80
2018-08-17T23:00:24.289Z,12.20
2018-08-17T23:02:53.089Z,11.20
2018-08-17T23:05:23.226Z,13.80
2018-08-17T23:07:50.864Z,12.80
2018-08-17T23:10:21.292Z,13.60
2018-08-17T23:12:50.359Z,13.40
2018-08-17T23:15:19.553Z,11.20
2018-08-17T23:18:03.310Z,13.00
2018-08-17T23:20:37.459Z,15.00
2018-08-17T23:23:06.064Z,14.60
2018-08-17T23:25:35.482Z,12.00
2018-08-17T23:28:04.607Z,12.00
2018-08-17T23:30:32.334Z,10.80
2018-08-17T23:33:00.029Z,12.20
2018-08-17T23:35:27.931Z,12.20
2018-08-17T23:37:55.527Z,10.00
2018-08-17T23:40:23.143Z,12.40
2018-08-17T23:42:51.462Z,12.80
2018-08-17T23:45:19.797Z,13.00
2018-08-17T23:47:47.440Z,11.60
2018-08-17T23:50:15.968Z,15.40
2018-08-17T23:52:43.857Z,13.40
2018-08-17T23:55:11.831Z,10.80
2018-08-17T23:57:39.440Z,12.20
